Time;durP1;ratioP1;P1;durP2;ratioP2;P2;SDS_P1;SDS_P2;PMS_P1;PMS_P2;Temp;Humidity;BMP_temperature;BMP_pressure;BME280_temperature;BME280_humidity;BME280_pressure;Samples;Min_cycle;Max_cycle;Signal;HPM_P1;HPM_P2
2022/02/16 00:00:12;;;;;;;3.90;1.60;;;;;;;3.06;78.13;95197.91;5030828;28;20249;-76
2022/02/16 00:02:41;;;;;;;2.60;1.00;;;;;;;3.06;77.30;95201.31;5014252;28;20198;-76
2022/02/16 00:05:08;;;;;;;2.80;1.37;;;;;;;3.08;77.95;95199.44;5014981;28;20193;-76
2022/02/16 00:07:34;;;;;;;4.00;0.93;;;;;;;3.02;78.53;95192.22;5048144;28;20186;-77
2022/02/16 00:09:59;;;;;;;2.37;0.90;;;;;;;2.99;78.31;95197.53;5030899;28;20175;-77
2022/02/16 00:12:25;;;;;;;2.77;0.93;;;;;;;2.98;78.97;95200.22;5030218;28;20210;-77
2022/02/16 00:14:50;;;;;;;3.03;1.10;;;;;;;3.01;78.57;95205.16;5031442;28;20186;-77
2022/02/16 00:17:15;;;;;;;2.83;0.97;;;;;;;3.08;78.58;95206.31;5031881;28;20189;-77
2022/02/16 00:19:41;;;;;;;3.03;0.90;;;;;;;3.06;78.96;95200.50;5032089;28;20210;-76
2022/02/16 00:22:06;;;;;;;4.00;1.10;;;;;;;3.04;79.13;95200.59;5031794;28;20221;-77
2022/02/16 00:24:31;;;;;;;3.37;1.07;;;;;;;3.02;79.58;95197.34;5031928;28;20640;-76
2022/02/16 00:26:56;;;;;;;3.20;1.10;;;;;;;3.01;79.94;95189.75;5030620;28;20240;-76
2022/02/16 00:29:22;;;;;;;2.33;0.97;;;;;;;2.99;79.80;95191.59;5030669;28;20190;-76
2022/02/16 00:31:47;;;;;;;4.17;1.07;;;;;;;3.00;80.58;95188.91;5030192;28;20665;-77
2022/02/16 00:34:12;;;;;;;2.33;1.07;;;;;;;2.97;80.64;95189.13;5031336;28;20205;-76
2022/02/16 00:36:38;;;;;;;3.03;1.00;;;;;;;2.95;81.09;95185.88;5030259;28;20273;-75
2022/02/16 00:39:03;;;;;;;1.73;1.00;;;;;;;2.99;81.12;95178.75;5030792;28;20207;-77
2022/02/16 00:41:30;;;;;;;1.10;0.80;;;;;;;2.97;81.33;95173.75;5028172;28;20254;-77
2022/02/16 00:43:55;;;;;;;2.70;1.00;;;;;;;2.97;81.68;95173.75;5030300;28;20179;-77
2022/02/16 00:46:20;;;;;;;2.77;0.90;;;;;;;2.82;82.34;95172.28;5030191;28;20189;-77
2022/02/16 00:48:46;;;;;;;3.20;0.93;;;;;;;2.82;82.51;95172.28;5030323;28;20174;-77
2022/02/16 00:51:42;;;;;;;1.57;0.87;;;;;;;2.78;82.70;95171.69;5031089;28;20681;-77
2022/02/16 00:54:07;;;;;;;1.73;0.90;;;;;;;2.80;83.06;95159.56;5029883;28;20213;-76
2022/02/16 00:56:33;;;;;;;2.77;0.83;;;;;;;2.74;83.41;95154.06;5030132;28;20667;-77
2022/02/16 00:58:58;;;;;;;3.07;0.77;;;;;;;2.78;83.43;95150.34;5030011;28;20209;-77
2022/02/16 01:01:23;;;;;;;2.03;0.80;;;;;;;2.76;83.99;95142.78;5030579;28;20213;-77
2022/02/16 01:03:48;;;;;;;1.70;0.90;;;;;;;2.74;84.48;95142.09;5029815;28;20194;-77
2022/02/16 01:06:14;;;;;;;1.93;0.93;;;;;;;2.74;84.50;95131.81;5030072;28;20718;-77
2022/02/16 01:08:39;;;;;;;1.17;0.73;;;;;;;2.72;84.72;95137.97;5029916;28;20186;-77
2022/02/16 01:11:04;;;;;;;2.33;0.80;;;;;;;2.69;85.43;95143.31;5029804;28;20194;-77
2022/02/16 01:13:30;;;;;;;2.00;0.80;;;;;;;2.73;85.47;95135.28;5030629;28;20182;-77
2022/02/16 01:15:55;;;;;;;0.73;0.60;;;;;;;2.72;85.37;95140.53;5031133;28;20221;-77
2022/02/16 01:18:21;;;;;;;1.60;0.77;;;;;;;2.79;85.45;95134.03;5029721;28;20608;-77
2022/02/16 01:20:46;;;;;;;1.87;0.63;;;;;;;2.74;85.78;95129.25;5029553;28;20245;-77
2022/02/16 01:23:11;;;;;;;2.53;0.70;;;;;;;2.73;86.27;95126.78;5025668;28;20207;-77
2022/02/16 01:25:37;;;;;;;0.93;0.57;;;;;;;2.74;86.13;95123.28;5010913;28;20533;-77
2022/02/16 01:28:02;;;;;;;2.63;0.70;;;;;;;2.72;86.38;95123.41;5012133;28;20690;-77
2022/02/16 01:30:28;;;;;;;1.43;0.80;;;;;;;2.78;86.36;95117.84;5029656;28;20245;-77
2022/02/16 01:32:53;;;;;;;2.70;1.00;;;;;;;2.74;86.90;95116.44;5029090;28;20261;-77
2022/02/16 01:35:19;;;;;;;2.37;0.70;;;;;;;2.71;87.44;95120.94;5013186;28;20174;-77
2022/02/16 01:37:44;;;;;;;2.50;0.83;;;;;;;2.79;87.24;95128.91;5030677;28;20702;-77
2022/02/16 01:40:09;;;;;;;1.67;0.80;;;;;;;2.75;87.42;95112.94;5012685;28;20218;-77
2022/02/16 01:42:35;;;;;;;1.37;0.67;;;;;;;2.75;87.73;95112.94;5027534;28;20744;-76
2022/02/16 01:45:00;;;;;;;2.57;0.80;;;;;;;2.77;88.42;95103.38;5029650;28;20178;-77
2022/02/16 01:47:25;;;;;;;1.70;0.70;;;;;;;2.81;87.73;95101.41;5030704;28;20233;-77
2022/02/16 01:49:51;;;;;;;0.80;0.43;;;;;;;2.77;88.34;95100.00;5012892;28;20174;-77
2022/02/16 01:52:16;;;;;;;1.27;0.70;;;;;;;2.77;88.71;95092.31;5030026;28;20573;-77
2022/02/16 01:54:41;;;;;;;1.50;0.60;;;;;;;2.74;89.53;95088.25;5012933;28;20659;-77
2022/02/16 01:57:07;;;;;;;1.00;0.60;;;;;;;2.72;89.23;95082.38;5029513;28;20210;-77
2022/02/16 01:59:34;;;;;;;0.50;0.50;;;;;;;2.65;90.30;95076.09;5029437;28;20248;-76
2022/02/16 02:01:59;;;;;;;0.60;0.50;;;;;;;2.63;90.36;95077.09;5012446;28;20197;-77
2022/02/16 02:04:25;;;;;;;1.70;0.90;;;;;;;2.67;90.51;95074.22;5029018;28;20228;-77
2022/02/16 02:06:50;;;;;;;1.80;0.60;;;;;;;2.64;90.37;95069.28;5029498;28;20182;-77
2022/02/16 02:09:15;;;;;;;0.60;0.40;;;;;;;2.55;90.81;95057.97;5029457;28;20206;-77
2022/02/16 02:11:41;;;;;;;2.00;0.40;;;;;;;2.52;91.49;95053.06;5012197;28;20198;-77
2022/02/16 02:14:08;;;;;;;2.10;0.73;;;;;;;2.60;90.92;95038.88;5012877;28;20265;-77
2022/02/16 02:16:36;;;;;;;1.17;0.50;;;;;;;2.54;90.95;95040.94;5029300;28;20228;-77
2022/02/16 02:19:01;;;;;;;0.60;0.40;;;;;;;2.55;91.31;95034.88;5012552;28;20198;-77
2022/02/16 02:21:27;;;;;;;1.50;0.60;;;;;;;2.62;91.49;95029.31;5028545;28;20217;-76
2022/02/16 02:23:55;;;;;;;0.97;0.50;;;;;;;2.56;91.31;95025.44;5030613;28;20174;-77
2022/02/16 02:26:20;;;;;;;1.00;0.70;;;;;;;2.54;91.44;95023.00;5029231;28;20175;-77
2022/02/16 02:28:46;;;;;;;3.07;0.93;;;;;;;2.59;91.45;95022.69;5029124;28;20176;-77
2022/02/16 02:31:12;;;;;;;1.10;0.60;;;;;;;2.53;91.79;95016.25;5011933;28;20214;-77
2022/02/16 02:33:37;;;;;;;3.43;1.27;;;;;;;2.52;91.78;95012.06;5012602;28;20282;-77
2022/02/16 02:36:04;;;;;;;3.37;0.93;;;;;;;2.50;91.63;95007.97;5012622;28;20652;-77
2022/02/16 02:38:30;;;;;;;3.37;1.43;;;;;;;2.49;91.89;95007.16;5029099;28;20240;-77
2022/02/16 02:40:57;;;;;;;4.70;1.43;;;;;;;2.50;91.62;95006.22;5033709;28;20194;-77
2022/02/16 02:43:25;;;;;;;0.50;0.50;;;;;;;2.48;92.34;95002.97;5014023;28;20273;-77
2022/02/16 02:45:50;;;;;;;0.70;0.43;;;;;;;2.51;91.32;94984.78;5032480;28;20201;-77
2022/02/16 02:48:19;;;;;;;1.00;0.60;;;;;;;2.53;91.89;94982.94;5033733;28;20175;-77
2022/02/16 02:50:44;;;;;;;1.50;0.40;;;;;;;2.53;91.82;94975.25;5015907;28;20205;-77
2022/02/16 02:53:10;;;;;;;0.57;0.57;;;;;;;2.53;91.51;94964.16;5031777;28;20179;-77
2022/02/16 02:55:35;;;;;;;0.87;0.53;;;;;;;2.48;92.35;94963.72;5015881;28;20567;-77
2022/02/16 02:58:00;;;;;;;0.70;0.53;;;;;;;2.51;92.00;94971.16;5033519;28;20261;-77
2022/02/16 03:00:26;;;;;;;0.50;0.50;;;;;;;2.52;91.71;94962.53;5032090;28;20208;-77
2022/02/16 03:02:51;;;;;;;0.60;0.50;;;;;;;2.53;91.72;94951.34;5014948;28;20268;-77
2022/02/16 03:05:16;;;;;;;2.13;0.70;;;;;;;2.56;91.56;94948.56;5032066;28;20183;-77
2022/02/16 03:07:41;;;;;;;0.40;0.40;;;;;;;2.55;92.14;94945.19;5032155;28;20194;-77
2022/02/16 03:10:10;;;;;;;0.77;0.47;;;;;;;2.49;92.06;94937.97;5033461;28;20174;-77
2022/02/16 03:12:35;;;;;;;2.63;0.63;;;;;;;2.51;92.33;94941.22;5031420;28;20181;-77
2022/02/16 03:15:01;;;;;;;0.30;0.30;;;;;;;2.47;92.11;94937.28;5015364;28;20182;-77
2022/02/16 03:17:27;;;;;;;0.63;0.40;;;;;;;2.45;92.06;94940.84;5015387;28;20225;-77
2022/02/16 03:19:52;;;;;;;1.37;0.60;;;;;;;2.47;92.33;94928.72;5031704;28;20242;-77
2022/02/16 03:22:19;;;;;;;0.47;0.40;;;;;;;2.39;92.66;94942.13;5032553;28;20210;-77
2022/02/16 03:24:44;;;;;;;1.53;0.40;;;;;;;2.45;92.56;94936.53;5031909;28;20209;-77
2022/02/16 03:27:10;;;;;;;0.50;0.40;;;;;;;2.44;92.74;94934.91;5031614;28;20206;-77
2022/02/16 03:29:35;;;;;;;0.43;0.37;;;;;;;2.45;92.97;94928.84;5015175;28;20170;-79
2022/02/16 03:32:00;;;;;;;0.77;0.40;;;;;;;2.47;93.01;94909.06;5032210;28;20221;-77
2022/02/16 03:34:26;;;;;;;1.37;0.60;;;;;;;2.51;92.40;94905.34;5031654;28;20181;-77
2022/02/16 03:36:51;;;;;;;0.63;0.50;;;;;;;2.53;92.55;94908.59;5014979;28;20182;-77
2022/02/16 03:39:16;;;;;;;1.70;0.60;;;;;;;2.59;92.17;94903.97;5032712;28;20194;-77
2022/02/16 03:41:42;;;;;;;0.43;0.40;;;;;;;2.47;92.69;94908.22;5029310;28;20603;-77
2022/02/16 03:44:07;;;;;;;1.43;0.53;;;;;;;2.49;92.78;94914.09;5014958;28;20249;-77
2022/02/16 03:46:33;;;;;;;0.77;0.43;;;;;;;2.51;92.79;94907.91;5031391;28;20265;-76
2022/02/16 03:48:58;;;;;;;1.07;0.60;;;;;;;2.51;93.38;94902.78;5032045;28;20747;-77
2022/02/16 03:51:23;;;;;;;0.40;0.37;;;;;;;2.49;93.51;94901.28;5030615;28;20217;-75
2022/02/16 03:53:48;;;;;;;0.30;0.30;;;;;;;2.49;93.11;94901.28;5032890;28;20211;-77
2022/02/16 03:56:14;;;;;;;0.50;0.33;;;;;;;2.57;93.04;94887.88;5033296;28;20187;-77
2022/02/16 03:58:39;;;;;;;0.80;0.30;;;;;;;2.58;92.87;94895.44;5014951;28;20291;-76
2022/02/16 04:01:04;;;;;;;0.63;0.40;;;;;;;2.47;93.44;94890.28;5031410;28;20289;-77
2022/02/16 04:03:30;;;;;;;1.40;0.40;;;;;;;2.50;93.33;94890.91;5030610;28;20241;-77
2022/02/16 04:05:55;;;;;;;0.73;0.40;;;;;;;2.54;92.84;94883.78;5014581;28;20621;-77
2022/02/16 04:08:20;;;;;;;0.37;0.30;;;;;;;2.58;93.44;94884.38;5030983;28;20592;-77
2022/02/16 04:10:46;;;;;;;0.20;0.20;;;;;;;2.62;92.61;94883.22;5032047;28;20602;-77
2022/02/16 04:13:12;;;;;;;0.43;0.40;;;;;;;2.61;93.20;94890.09;5031468;28;20188;-77
2022/02/16 04:15:37;;;;;;;0.60;0.40;;;;;;;2.63;92.56;94888.22;5030819;28;20171;-77
2022/02/16 04:18:02;;;;;;;1.23;0.50;;;;;;;2.65;92.62;94888.09;5030882;28;20644;-77
2022/02/16 04:20:28;;;;;;;0.30;0.30;;;;;;;2.72;92.57;94884.97;5030708;28;20687;-77
2022/02/16 04:22:53;;;;;;;0.30;0.30;;;;;;;2.72;92.45;94886.72;5031303;28;20175;-77
2022/02/16 04:25:19;;;;;;;1.80;0.40;;;;;;;2.68;92.72;94887.88;5030616;28;20186;-77
2022/02/16 04:27:45;;;;;;;0.40;0.40;;;;;;;2.68;93.04;94890.44;5030836;28;20175;-77
2022/02/16 04:30:11;;;;;;;1.57;0.30;;;;;;;2.71;92.96;94891.03;5030523;28;20167;-77
2022/02/16 04:32:37;;;;;;;0.40;0.30;;;;;;;2.75;92.54;94886.50;5013522;28;20183;-77
2022/02/16 04:35:03;;;;;;;0.30;0.30;;;;;;;2.73;92.44;94878.91;5030709;28;20197;-77
2022/02/16 04:37:28;;;;;;;1.77;0.53;;;;;;;2.75;92.71;94881.38;5030389;28;20731;-77
2022/02/16 04:39:53;;;;;;;2.77;0.80;;;;;;;2.78;92.39;94888.81;5013774;28;20216;-77
2022/02/16 04:42:19;;;;;;;0.50;0.50;;;;;;;2.72;93.03;94871.31;5028310;28;20206;-77
2022/02/16 04:44:44;;;;;;;0.30;0.30;;;;;;;2.75;92.88;94881.38;5030398;28;20182;-77
2022/02/16 04:47:10;;;;;;;0.30;0.30;;;;;;;2.72;92.96;94871.31;5030259;28;20182;-77
2022/02/16 04:49:35;;;;;;;0.40;0.40;;;;;;;2.82;92.45;94867.94;5031593;28;20545;-77
2022/02/16 04:52:02;;;;;;;0.87;0.40;;;;;;;2.88;92.93;94851.28;5025997;28;20282;-77
2022/02/16 04:54:28;;;;;;;0.30;0.30;;;;;;;2.83;92.50;94848.28;5027226;28;20195;-77
2022/02/16 04:57:19;;;;;;;0.40;0.30;;;;;;;2.83;93.05;94854.22;5030231;28;20209;-77
2022/02/16 04:59:44;;;;;;;0.93;0.27;;;;;;;2.81;93.18;94839.84;5030455;28;20255;-77
2022/02/16 05:02:10;;;;;;;0.50;0.40;;;;;;;2.76;93.46;94832.53;5029579;28;20230;-77
2022/02/16 05:04:35;;;;;;;0.87;0.33;;;;;;;2.80;93.88;94843.34;5029988;28;20193;-77
2022/02/16 05:07:00;;;;;;;0.40;0.40;;;;;;;2.80;93.38;94853.63;5029901;28;20660;-77
2022/02/16 05:09:25;;;;;;;0.60;0.40;;;;;;;2.80;93.61;94851.06;5031200;28;20174;-77
2022/02/16 05:11:51;;;;;;;1.53;0.60;;;;;;;2.83;94.02;94848.28;5029266;28;20217;-77
2022/02/16 05:14:16;;;;;;;0.70;0.40;;;;;;;2.78;93.81;94835.78;5031077;28;20570;-77
2022/02/16 05:16:42;;;;;;;0.60;0.40;;;;;;;2.77;93.89;94828.22;5029851;28;20320;-77
2022/02/16 05:19:07;;;;;;;0.60;0.40;;;;;;;2.78;93.75;94832.41;5029812;28;20213;-77
2022/02/16 05:21:32;;;;;;;0.53;0.33;;;;;;;2.77;94.37;94834.16;5046713;28;20288;-77
2022/02/16 05:23:58;;;;;;;0.30;0.30;;;;;;;2.82;93.47;94823.53;5033040;28;20646;-76
2022/02/16 05:26:23;;;;;;;1.27;0.40;;;;;;;2.86;93.55;94835.19;5051030;28;20182;-76
2022/02/16 05:28:48;;;;;;;0.83;0.30;;;;;;;2.89;94.01;94826.44;5051827;28;20208;-76
2022/02/16 05:31:14;;;;;;;0.40;0.40;;;;;;;2.84;93.87;94816.56;5050953;28;20197;-77
2022/02/16 05:33:39;;;;;;;0.57;0.30;;;;;;;2.88;94.15;94809.44;5048383;28;20221;-76
2022/02/16 05:36:05;;;;;;;0.50;0.40;;;;;;;2.88;93.80;94802.56;5033068;28;20520;-75
2022/02/16 05:38:30;;;;;;;0.70;0.50;;;;;;;2.91;93.74;94799.75;5050691;28;20189;-75
2022/02/16 05:40:55;;;;;;;0.40;0.40;;;;;;;2.93;93.90;94797.91;5050752;28;20201;-77
2022/02/16 05:43:21;;;;;;;1.17;0.47;;;;;;;2.99;93.11;94787.13;5049483;28;20182;-75
2022/02/16 05:45:46;;;;;;;0.30;0.30;;;;;;;3.07;93.28;94799.38;5049647;28;20178;-76
2022/02/16 05:48:19;;;;;;;1.33;0.40;;;;;;;3.10;92.91;94797.38;5049310;28;20219;-76
2022/02/16 05:50:45;;;;;;;1.17;0.30;;;;;;;3.11;92.90;94781.06;5051444;28;20186;-77
2022/02/16 05:53:10;;;;;;;0.60;0.40;;;;;;;3.10;92.84;94782.00;5048868;28;20239;-75
2022/02/16 05:55:35;;;;;;;0.70;0.50;;;;;;;3.11;93.04;94773.38;5050916;28;20166;-75
2022/02/16 05:58:01;;;;;;;0.50;0.40;;;;;;;3.09;92.79;94764.97;5032585;28;20232;-76
2022/02/16 06:00:26;;;;;;;0.93;0.80;;;;;;;3.15;92.84;94755.16;5049150;28;20573;-76
2022/02/16 06:02:51;;;;;;;1.37;1.00;;;;;;;3.18;92.94;94757.47;5051219;28;20178;-77
2022/02/16 06:05:17;;;;;;;0.50;0.50;;;;;;;3.16;92.94;94751.66;5049644;28;20209;-77
2022/02/16 06:07:42;;;;;;;0.87;0.87;;;;;;;3.14;93.47;94746.66;5034030;28;20223;-77
2022/02/16 06:10:08;;;;;;;1.17;0.50;;;;;;;3.21;93.18;94737.53;5050671;28;20186;-77
2022/02/16 06:12:33;;;;;;;0.50;0.50;;;;;;;3.22;92.73;94740.91;5003453;28;20834;-77
2022/02/16 06:14:58;;;;;;;0.57;0.40;;;;;;;3.23;92.92;94748.47;5025294;28;20648;-77
2022/02/16 06:17:23;;;;;;;0.30;0.30;;;;;;;3.26;92.97;94744.84;5013157;28;20187;-77
2022/02/16 06:19:49;;;;;;;0.50;0.40;;;;;;;3.28;92.79;94768.66;5027000;28;20210;-76
2022/02/16 06:22:14;;;;;;;0.47;0.40;;;;;;;3.29;92.67;94763.38;5032400;28;20234;-76
2022/02/16 06:24:39;;;;;;;0.50;0.27;;;;;;;3.40;91.67;94753.06;5032925;28;20179;-76
2022/02/16 06:27:05;;;;;;;0.77;0.40;;;;;;;3.43;91.47;94752.00;5032955;28;20186;-76
2022/02/16 06:29:30;;;;;;;0.50;0.30;;;;;;;3.46;91.21;94741.50;5034365;28;20186;-76
2022/02/16 06:31:56;;;;;;;0.37;0.30;;;;;;;3.56;90.53;94749.28;5023906;28;20572;-76
2022/02/16 06:34:21;;;;;;;1.37;0.50;;;;;;;3.56;90.78;94747.53;5012805;28;20664;-76
2022/02/16 06:36:46;;;;;;;0.20;0.20;;;;;;;3.58;90.51;94744.81;5013330;28;20274;-77
2022/02/16 06:39:12;;;;;;;0.67;0.30;;;;;;;3.56;90.81;94750.09;4996611;28;20557;-76
2022/02/16 06:41:37;;;;;;;0.30;0.30;;;;;;;3.63;90.33;94752.97;5012444;28;20229;-76
2022/02/16 06:44:03;;;;;;;0.43;0.40;;;;;;;3.68;89.55;94754.22;5012638;28;20611;-76
2022/02/16 06:46:28;;;;;;;0.57;0.30;;;;;;;3.80;89.40;94749.84;5015091;28;20183;-78
2022/02/16 06:48:53;;;;;;;1.10;0.20;;;;;;;3.81;88.97;94748.91;5030462;28;20183;-78
2022/02/16 06:51:19;;;;;;;0.30;0.30;;;;;;;3.81;89.36;94758.38;5036035;28;20195;-78
2022/02/16 06:53:45;;;;;;;0.37;0.30;;;;;;;3.84;88.98;94758.91;5015531;28;20560;-78
2022/02/16 06:56:10;;;;;;;1.37;0.40;;;;;;;3.88;89.24;94759.47;5027608;28;20186;-78
2022/02/16 06:58:35;;;;;;;0.20;0.20;;;;;;;3.93;88.44;94760.72;5013030;28;20226;-77
2022/02/16 07:01:01;;;;;;;0.57;0.40;;;;;;;3.94;88.74;94756.41;5016641;28;20575;-77
2022/02/16 07:03:26;;;;;;;0.30;0.30;;;;;;;3.93;88.50;94755.59;5018234;28;20606;-78
2022/02/16 07:05:51;;;;;;;0.70;0.70;;;;;;;3.93;88.63;94767.63;5004041;28;20191;-78
2022/02/16 07:08:17;;;;;;;1.00;0.60;;;;;;;4.02;88.01;94753.19;5024440;28;20186;-76
2022/02/16 07:10:42;;;;;;;0.40;0.37;;;;;;;4.07;88.18;94753.66;5028857;28;20237;-78
2022/02/16 07:13:07;;;;;;;0.30;0.30;;;;;;;4.07;88.16;94751.91;5035246;28;20187;-78
2022/02/16 07:15:33;;;;;;;0.57;0.30;;;;;;;4.04;88.06;94729.00;5033115;28;20229;-77
2022/02/16 07:18:00;;;;;;;0.30;0.30;;;;;;;4.07;88.08;94728.75;4999004;28;20600;-77
2022/02/16 07:20:26;;;;;;;0.57;0.43;;;;;;;4.09;88.30;94721.75;5017469;28;20210;-77
2022/02/16 07:22:51;;;;;;;0.80;0.50;;;;;;;4.08;88.79;94739.84;5018469;28;20281;-78
2022/02/16 07:25:17;;;;;;;0.30;0.30;;;;;;;4.06;89.18;94739.97;5033380;28;20186;-78
2022/02/16 07:27:43;;;;;;;0.53;0.30;;;;;;;4.13;88.66;94743.66;5015868;28;20555;-79
2022/02/16 07:30:10;;;;;;;0.30;0.30;;;;;;;4.12;88.92;94742.03;5011985;28;20182;-79
2022/02/16 07:32:41;;;;;;;0.77;0.70;;;;;;;4.16;88.80;94742.59;5036123;28;20593;-79
2022/02/16 07:35:08;;;;;;;0.97;0.60;;;;;;;4.11;88.90;94730.13;5005903;28;20326;-79
2022/02/16 07:37:33;;;;;;;0.40;0.40;;;;;;;4.14;89.01;94729.84;5020434;28;20190;-78
2022/02/16 07:39:59;;;;;;;0.50;0.50;;;;;;;4.18;88.56;94736.38;5016869;28;20200;-79
2022/02/16 07:42:26;;;;;;;0.50;0.40;;;;;;;4.22;88.60;94724.09;5033956;28;20194;-77
2022/02/16 07:44:51;;;;;;;0.33;0.33;;;;;;;4.30;88.20;94718.28;5035318;28;20178;-79
2022/02/16 07:47:17;;;;;;;0.30;0.30;;;;;;;4.38;88.29;94719.28;5018143;28;20184;-79
2022/02/16 07:49:42;;;;;;;1.17;0.50;;;;;;;4.30;88.46;94720.88;5022366;28;20663;-78
2022/02/16 07:52:07;;;;;;;0.40;0.40;;;;;;;4.37;88.06;94709.94;5034046;28;20515;-79
2022/02/16 07:54:33;;;;;;;0.60;0.30;;;;;;;4.37;88.37;94724.56;5034904;28;20186;-78
2022/02/16 07:56:58;;;;;;;0.20;0.20;;;;;;;4.31;88.39;94712.22;5034743;28;20178;-77
2022/02/16 07:59:24;;;;;;;0.20;0.20;;;;;;;4.32;88.25;94711.25;5016780;28;20206;-77
2022/02/16 08:01:49;;;;;;;0.30;0.30;;;;;;;4.31;88.32;94704.50;5016708;28;20203;-78
2022/02/16 08:04:18;;;;;;;0.70;0.50;;;;;;;4.31;89.01;94704.50;4999441;28;20186;-78
2022/02/16 08:06:44;;;;;;;0.37;0.37;;;;;;;4.29;89.85;94701.25;5014520;28;20587;-79
2022/02/16 08:09:10;;;;;;;0.33;0.33;;;;;;;4.33;89.70;94693.16;5000233;28;20184;-78
2022/02/16 08:11:40;;;;;;;0.40;0.40;;;;;;;4.33;90.70;94700.03;4999982;28;20218;-79
2022/02/16 08:14:06;;;;;;;0.93;0.40;;;;;;;4.30;91.75;94705.44;5030639;28;20186;-79
2022/02/16 08:16:32;;;;;;;1.70;1.30;;;;;;;4.26;92.63;94704.91;5035270;28;20179;-79
2022/02/16 08:18:58;;;;;;;0.50;0.50;;;;;;;4.17;93.18;94698.78;5033345;28;20198;-79
2022/02/16 08:21:23;;;;;;;0.40;0.40;;;;;;;4.28;92.80;94694.50;5033387;28;20292;-79
2022/02/16 08:23:48;;;;;;;1.43;0.70;;;;;;;4.24;93.29;94687.06;5035230;28;20660;-78
2022/02/16 08:26:14;;;;;;;1.10;1.10;;;;;;;4.25;93.79;94669.88;5018754;28;20595;-79
2022/02/16 08:28:39;;;;;;;0.30;0.30;;;;;;;4.20;94.35;94665.09;5033563;28;20189;-79
2022/02/16 08:31:04;;;;;;;0.50;0.50;;;;;;;4.11;95.34;94673.59;5035026;28;20637;-78
2022/02/16 08:33:29;;;;;;;0.70;0.70;;;;;;;4.25;95.18;94665.53;5026108;28;20179;-79
2022/02/16 08:35:55;;;;;;;0.63;0.50;;;;;;;4.25;95.72;94662.97;5014492;28;20176;-79
2022/02/16 08:38:20;;;;;;;1.67;0.40;;;;;;;4.18;95.52;94659.28;5014796;28;20210;-79
2022/02/16 08:40:45;;;;;;;0.80;0.57;;;;;;;4.20;95.82;94654.81;4998338;28;20213;-79
2022/02/16 08:43:11;;;;;;;0.60;0.60;;;;;;;4.13;95.85;94661.44;5006744;28;20201;-79
2022/02/16 08:45:36;;;;;;;1.40;0.37;;;;;;;4.15;96.39;94649.28;5016920;28;20187;-79
2022/02/16 08:48:02;;;;;;;0.20;0.20;;;;;;;4.15;96.12;94654.44;5014632;28;20184;-79
2022/02/16 08:50:27;;;;;;;0.20;0.20;;;;;;;4.24;96.28;94640.78;4998527;28;20217;-79
2022/02/16 08:52:53;;;;;;;0.27;0.27;;;;;;;4.39;94.91;94636.06;5002226;28;20179;-78
2022/02/16 08:55:18;;;;;;;0.27;0.20;;;;;;;4.42;95.33;94638.41;5033136;28;20197;-78
2022/02/16 08:57:43;;;;;;;0.63;0.30;;;;;;;4.51;95.72;94644.50;5015958;28;20237;-79
2022/02/16 09:00:09;;;;;;;0.20;0.20;;;;;;;4.55;95.00;94638.13;5017528;28;20602;-79
2022/02/16 09:02:36;;;;;;;0.20;0.20;;;;;;;4.60;94.86;94628.28;5016801;28;20600;-78
2022/02/16 09:05:01;;;;;;;0.30;0.23;;;;;;;4.64;95.40;94633.94;5016139;28;20538;-79
2022/02/16 09:07:27;;;;;;;0.30;0.30;;;;;;;4.72;94.37;94632.34;5034040;28;20212;-79
2022/02/16 09:09:53;;;;;;;0.40;0.40;;;;;;;4.93;94.61;94634.78;5030199;28;20271;-79
2022/02/16 09:12:18;;;;;;;0.47;0.27;;;;;;;4.93;93.58;94642.50;5015990;28;20211;-79
2022/02/16 09:14:43;;;;;;;0.40;0.23;;;;;;;4.83;94.24;94629.63;5020582;28;20210;-78
2022/02/16 09:17:09;;;;;;;0.50;0.50;;;;;;;4.92;94.14;94627.19;5038620;28;20183;-79
2022/02/16 09:19:34;;;;;;;0.70;0.40;;;;;;;5.22;93.61;94626.25;5019695;28;20212;-79
2022/02/16 09:22:00;;;;;;;0.40;0.40;;;;;;;5.34;92.78;94628.53;5018763;28;20210;-79
2022/02/16 09:24:25;;;;;;;0.40;0.40;;;;;;;5.45;91.96;94617.25;5036747;28;20200;-79
2022/02/16 09:26:52;;;;;;;0.30;0.30;;;;;;;5.38;92.12;94616.97;5034768;28;20572;-78
2022/02/16 09:29:18;;;;;;;1.13;0.30;;;;;;;5.49;92.33;94616.03;5022367;28;20242;-79
2022/02/16 09:31:43;;;;;;;0.27;0.27;;;;;;;5.51;91.38;94619.28;5019392;28;20354;-79
2022/02/16 09:34:09;;;;;;;0.30;0.30;;;;;;;5.47;91.05;94620.50;5040201;28;20215;-79
2022/02/16 09:36:35;;;;;;;0.17;0.17;;;;;;;5.59;91.31;94614.25;5002898;28;20179;-78
2022/02/16 09:39:01;;;;;;;0.27;0.27;;;;;;;5.53;91.73;94607.06;5011894;28;20195;-78
2022/02/16 09:41:26;;;;;;;0.30;0.30;;;;;;;5.62;91.35;94593.34;5013493;28;20221;-78
2022/02/16 09:43:51;;;;;;;0.20;0.20;;;;;;;5.92;90.57;94587.19;4996946;28;20202;-78
2022/02/16 09:46:17;;;;;;;0.20;0.20;;;;;;;5.81;90.44;94583.91;5009073;28;20194;-78
2022/02/16 09:48:42;;;;;;;0.30;0.30;;;;;;;5.90;90.34;94575.34;5020152;28;20660;-79
2022/02/16 09:51:08;;;;;;;0.90;0.30;;;;;;;5.88;90.61;94595.28;5018330;28;20205;-78
2022/02/16 09:53:33;;;;;;;0.30;0.30;;;;;;;5.87;90.45;94591.09;5016154;28;20194;-78
2022/02/16 09:56:02;;;;;;;0.40;0.40;;;;;;;5.95;90.59;94602.34;5017470;28;20182;-78
2022/02/16 09:58:28;;;;;;;0.87;0.40;;;;;;;5.98;90.84;94596.09;5000844;28;20178;-78
2022/02/16 10:01:05;;;;;;;0.30;0.30;;;;;;;5.96;90.77;94606.53;5018067;28;20222;-78
2022/02/16 10:03:30;;;;;;;0.40;0.40;;;;;;;6.02;90.27;94609.50;5000992;28;20179;-78
2022/02/16 10:05:56;;;;;;;0.60;0.47;;;;;;;6.12;90.30;94602.53;5018275;28;20205;-78
2022/02/16 10:08:40;;;;;;;0.30;0.30;;;;;;;5.93;91.04;94617.13;5018973;28;20269;-78
2022/02/16 10:11:05;;;;;;;0.30;0.30;;;;;;;5.95;90.91;94614.41;5034625;28;20701;-78
2022/02/16 10:13:31;;;;;;;0.30;0.30;;;;;;;5.90;91.40;94617.41;5032009;28;20179;-78
2022/02/16 10:15:56;;;;;;;0.20;0.20;;;;;;;6.04;90.97;94620.47;5017222;28;20211;-78
2022/02/16 10:18:23;;;;;;;0.20;0.20;;;;;;;6.13;91.14;94619.63;5020761;28;20194;-80
2022/02/16 10:20:50;;;;;;;0.30;0.30;;;;;;;6.13;90.97;94614.47;5030320;28;20751;-78
2022/02/16 10:23:16;;;;;;;0.13;0.13;;;;;;;6.19;90.20;94621.66;5018649;28;20270;-79
2022/02/16 10:25:49;;;;;;;0.20;0.20;;;;;;;6.34;90.14;94609.88;5003242;28;20215;-80
2022/02/16 10:28:20;;;;;;;0.30;0.30;;;;;;;6.35;89.91;94608.91;5000428;28;20597;-79
2022/02/16 10:30:59;;;;;;;0.10;0.10;;;;;;;6.39;89.70;94612.84;5000276;28;20225;-78
2022/02/16 10:33:26;;;;;;;0.20;0.20;;;;;;;6.53;89.16;94599.44;5014854;28;20233;-78
2022/02/16 10:35:59;;;;;;;0.30;0.30;;;;;;;6.67;88.49;94598.13;5016892;28;20270;-78
2022/02/16 10:38:24;;;;;;;0.33;0.33;;;;;;;6.86;88.26;94591.19;5015146;28;20186;-78
2022/02/16 10:41:08;;;;;;;0.20;0.20;;;;;;;7.03;87.34;94601.50;5012471;28;20223;-78
2022/02/16 10:43:38;;;;;;;0.10;0.10;;;;;;;7.28;86.82;94588.78;4998443;28;20558;-78
2022/02/16 10:46:23;;;;;;;0.20;0.20;;;;;;;7.39;86.27;94579.00;4998822;28;20183;-78
2022/02/16 10:49:15;;;;;;;0.30;0.30;;;;;;;7.17;86.44;94596.78;5032577;28;20183;-79
2022/02/16 10:51:42;;;;;;;0.20;0.20;;;;;;;7.32;86.45;94590.09;5017598;28;20206;-78
2022/02/16 10:54:15;;;;;;;0.20;0.20;;;;;;;7.39;86.05;94584.19;5020514;28;20186;-78
2022/02/16 10:56:45;;;;;;;0.30;0.30;;;;;;;7.52;85.75;94585.56;5035402;28;20186;-78
2022/02/16 10:59:11;;;;;;;0.30;0.30;;;;;;;7.67;85.16;94581.44;5015461;28;20205;-78
2022/02/16 11:01:38;;;;;;;0.33;0.20;;;;;;;7.59;85.09;94587.38;5014607;28;20290;-78
2022/02/16 11:04:05;;;;;;;0.43;0.27;;;;;;;7.86;84.32;94562.31;5032081;28;20194;-78
2022/02/16 11:06:32;;;;;;;0.50;0.50;;;;;;;8.04;84.06;94567.38;5008375;28;20618;-79
2022/02/16 11:08:59;;;;;;;0.63;0.40;;;;;;;8.01;82.89;94573.69;4997510;28;20183;-78
2022/02/16 11:11:25;;;;;;;0.20;0.20;;;;;;;7.97;82.74;94563.81;4997996;28;20210;-79
2022/02/16 11:13:51;;;;;;;0.40;0.30;;;;;;;8.15;82.92;94564.53;5015538;28;20191;-78
2022/02/16 11:16:17;;;;;;;0.40;0.40;;;;;;;8.39;82.31;94553.47;5005113;28;20214;-77
2022/02/16 11:18:47;;;;;;;0.20;0.20;;;;;;;8.44;81.54;94553.81;5012528;28;20246;-78
2022/02/16 11:21:17;;;;;;;0.30;0.30;;;;;;;8.79;80.60;94550.94;5006979;28;20217;-77
2022/02/16 11:23:44;;;;;;;0.20;0.20;;;;;;;8.70;80.14;94546.75;5012270;28;20237;-76
2022/02/16 11:26:37;;;;;;;0.20;0.20;;;;;;;8.83;80.20;94556.59;5016755;28;20229;-77
2022/02/16 11:29:29;;;;;;;0.43;0.40;;;;;;;8.82;80.03;94547.22;5022092;28;20194;-77
2022/02/16 11:32:00;;;;;;;0.20;0.20;;;;;;;8.81;79.56;94553.38;5019942;28;20272;-78
2022/02/16 11:34:26;;;;;;;0.10;0.10;;;;;;;8.67;80.24;94536.72;5019697;28;20182;-77
2022/02/16 11:36:59;;;;;;;0.10;0.10;;;;;;;8.73;80.19;94549.00;5022023;28;20547;-77